Aérodrome :
LOGIN :

S'inscrire | Disclaimer

   EN    FR    IT 

 










Légende :    VFR   VFR Marginal   IFR   IFR Intensif   IFR Très Intensif
Visi : 
Plafond : 
>= 8 km
>= 3000ft
5 à 8 km
1000 à 3000 ft
1500m à 5 km
500 à 1000 ft
800 à 1500m
200 à 500 ft
< 800m
< 200 ft
Symboles :   Orages  Brouillard  Fortes neiges  Fortes précipitations  Vent > 20 kt
SIGMETs :   Divers  Orages  Givrage  Turbulence  Onde Orograph.  Cendres Volcan.






- Altitude de l'aérodrome : 459 ft
- Code IATA : CER


LFRC - Cherbourg / Maupertus

DERNIER METAR :
  • 271800Z AUTO 23012KT 9999 SCT047 BKN064 BKN110 06/05 Q0997 TEMPO 22025G40KT 3000 TSRAGS BKN012CB

METARs EXPIRÉS :
  • 271730Z AUTO 24013KT 9999 -RA FEW019/// SCT033/// BKN040/// ///TCU 06/05 Q0997 TEMPO 22025G40KT 3000 TSRAGS BKN012CB
  • 271700Z AUTO 25017KT 9000 -RA BKN011/// BKN018/// BKN024/// ///TCU 07/05 Q0997 TEMPO 22025G40KT 3000 TSRAGS BKN012CB
  • 271630Z AUTO 24013KT 9999 BKN012 BKN076 BKN100 07/06 Q0998 TEMPO 22025G40KT 3000 TSRAGS BKN012CB
  • 271600Z AUTO 24016KT 9999 BKN011 BKN017 BKN078 07/06 Q0998 TEMPO 22025G40KT 3000 TSRAGS BKN012CB
  • 271530Z AUTO 23016KT 9999 BKN011 BKN022 BKN220 07/06 Q0998 TEMPO 22025G40KT 3000 TSRAGS BKN012CB

TAF AMD TAF LFRC
Valide du 27 à 15h jusqu'au 28 à 00h UTC


271503Z 2715/2724 22015G25KT 9999 BKN020
TEMPO 2715/2717 BKN007
TEMPO 2715/2724 4000 SHRA BKN012CB
PROB40
TEMPO 2717/2724 22025G40KT 3000 TSRAGS



MET'MAP, la Météo Aéronautique d'un coup d'oeil ! - Copyright ORBIFLY Décembre 2007 - Disclaimer

ORBIFLY MET'MAP TEAM :

Programmation & Développement : Alexandra Zaïnal
Sur une idée originale de : Baudouin d'Aumeries
Assistance à la programmation : Marc-Olivier Méhu
Soutien technique & logistique : Manuel Goepfert

Contact : metmap@orbifly.com




SOURCES & CREDITS :

   NOAA